WALL

Sultan Aji Muhamad Sulaiman Airport

Kotamadya Balikpapan, Indonesia
TAF WALL 182300Z 1900/2006 03005KT 9999 FEW020CB FEW020 TEMPO 1902/1905 7000 -RA FEW018CB BECMG 1905/1907 SCT020 BECMG 1910/1912 9000
Issued Valid From Valid To
Jan-18 @ 23:00 UTC
(3 hours ago)
Jan-19 @ 00:00 UTC
(2 hours ago)
Jan-20 @ 06:00 UTC
(-1 days ago)
Jan-19 @ 00:00 to Jan-19 @ 05:00
TAF WALL 182300Z 1900/2006 03005KT 9999 FEW020CB FEW020
Wind Visibility Clouds
30° at 5 knots 10,000+ meters
  • Few at 2,000' AGL
  • Few at 2,000' AGL
Temporary Jan-19 @ 02:00 to Jan-19 @ 05:00
TEMPO 1902/1905 7000 -RA FEW018CB
Visibility Clouds Conditions
7,001 meters
  • Few at 1,800' AGL
  • Light Rain
Becoming Jan-19 @ 05:00 to Jan-19 @ 10:00
BECMG 1905/1907 SCT020
Wind Visibility Clouds
30° at 5 knots 10,000+ meters
  • Scattered at 2,000' AGL
Becoming Jan-19 @ 10:00 to Jan-20 @ 06:00
BECMG 1910/1912 9000
Wind Visibility Clouds
30° at 5 knots 8,996 meters
  • Scattered at 2,000' AGL
TAF WALL 182300Z 1900/2006 03005KT 9999 FEW020CB FEW020 TEMPO 1902/1905 7000 -RA FEW018CB BECMG 1905/1907 SCT020 BECMG 1910/1912 9000
Issued Jan-18 @ 23:00 UTC
(3 hours ago)
Valid From Jan-19 @ 00:00 UTC
(2 hours ago)
Valid To Jan-20 @ 06:00 UTC
(-1 days ago)
Jan-19 @ 00:00 - Jan-19 @ 05:00
Wind Visibility
30° at 5 knots 10,000+ meters
Clouds
  • Few at 2,000' AGL
  • Few at 2,000' AGL
Temporary Jan-19 @ 02:00 - Jan-19 @ 05:00
Clouds
  • Few at 1,800' AGL
Conditions
  • Light Rain
Becoming Jan-19 @ 05:00 - Jan-19 @ 10:00
Wind Visibility
30° at 5 knots 10,000+ meters
Clouds
  • Scattered at 2,000' AGL
Becoming Jan-19 @ 10:00 - Jan-20 @ 06:00
Wind Visibility
30° at 5 knots 8,996 meters
Clouds
  • Scattered at 2,000' AGL